createdAt,value
2023-03-22T00:01:37.085Z,100.00
2023-03-22T00:04:05.235Z,100.00
2023-03-22T00:06:35.383Z,100.00
2023-03-22T00:09:04.890Z,100.00
2023-03-22T00:11:33.098Z,100.00
2023-03-22T00:14:01.731Z,100.00
2023-03-22T00:16:30.976Z,100.00
2023-03-22T00:19:05.233Z,100.00
2023-03-22T00:21:37.268Z,100.00
2023-03-22T00:24:08.607Z,100.00
2023-03-22T00:26:37.040Z,100.00
2023-03-22T00:29:06.056Z,100.00
2023-03-22T00:31:40.171Z,100.00
2023-03-22T00:34:09.695Z,100.00
2023-03-22T00:36:38.371Z,100.00
2023-03-22T00:39:06.966Z,100.00
2023-03-22T00:41:35.295Z,100.00
2023-03-22T00:44:06.057Z,100.00
2023-03-22T00:46:35.712Z,100.00
2023-03-22T00:49:03.866Z,100.00
2023-03-22T00:51:32.515Z,100.00
2023-03-22T00:54:00.686Z,100.00
2023-03-22T00:56:34.192Z,100.00
2023-03-22T00:59:03.678Z,100.00
2023-03-22T01:01:33.232Z,100.00
2023-03-22T01:04:03.608Z,100.00
2023-03-22T01:06:33.597Z,100.00
2023-03-22T01:09:03.976Z,100.00
2023-03-22T01:11:36.200Z,100.00
2023-03-22T01:14:05.901Z,100.00
2023-03-22T01:16:34.342Z,100.00
2023-03-22T01:19:02.873Z,100.00
2023-03-22T01:21:31.927Z,100.00
2023-03-22T01:24:00.076Z,100.00
2023-03-22T01:26:28.585Z,100.00
2023-03-22T01:28:56.912Z,100.00
2023-03-22T01:31:25.208Z,100.00
2023-03-22T01:33:54.205Z,100.00
2023-03-22T01:36:22.220Z,100.00
2023-03-22T01:38:52.209Z,100.00
2023-03-22T01:41:21.738Z,100.00
2023-03-22T01:44:19.068Z,100.00
2023-03-22T01:46:49.371Z,100.00
2023-03-22T01:49:26.464Z,100.00
2023-03-22T01:51:57.883Z,100.00
2023-03-22T01:54:41.083Z,100.00
2023-03-22T01:57:09.080Z,100.00
2023-03-22T01:59:37.809Z,100.00
2023-03-22T02:02:06.209Z,100.00
2023-03-22T02:04:37.062Z,100.00
2023-03-22T02:07:10.307Z,100.00
2023-03-22T02:09:42.915Z,100.00
2023-03-22T02:12:32.756Z,100.00
2023-03-22T02:15:30.000Z,100.00
2023-03-22T02:18:28.315Z,100.00
2023-03-22T02:21:21.078Z,100.00
2023-03-22T02:23:56.494Z,100.00
2023-03-22T02:26:31.853Z,100.00
2023-03-22T02:29:09.466Z,100.00
2023-03-22T02:31:49.864Z,100.00
2023-03-22T02:34:28.078Z,100.00
2023-03-22T02:37:02.361Z,100.00
2023-03-22T02:39:49.226Z,100.00
2023-03-22T02:42:47.334Z,100.00
2023-03-22T02:45:21.095Z,100.00
2023-03-22T02:48:03.199Z,100.00
2023-03-22T02:50:35.130Z,100.00
2023-03-22T02:53:32.708Z,100.00
2023-03-22T02:56:22.033Z,100.00
2023-03-22T02:58:53.907Z,100.00
2023-03-22T03:01:32.807Z,100.00
2023-03-22T03:04:05.165Z,100.00
2023-03-22T03:06:39.309Z,100.00
2023-03-22T03:09:08.201Z,100.00
2023-03-22T03:11:38.112Z,100.00
2023-03-22T03:14:06.574Z,100.00
2023-03-22T03:16:37.693Z,100.00
2023-03-22T03:19:20.710Z,100.00
2023-03-22T03:22:01.988Z,100.00
2023-03-22T03:24:36.542Z,100.00
2023-03-22T03:27:07.525Z,100.00
2023-03-22T03:30:06.248Z,100.00
2023-03-22T03:32:38.856Z,100.00
2023-03-22T03:35:22.949Z,100.00
2023-03-22T03:37:57.981Z,100.00
2023-03-22T03:40:31.414Z,100.00
2023-03-22T03:43:03.572Z,100.00
2023-03-22T03:45:32.378Z,100.00
2023-03-22T03:48:03.564Z,100.00
2023-03-22T03:50:31.930Z,100.00
2023-03-22T03:53:00.476Z,100.00
2023-03-22T03:55:29.636Z,100.00
2023-03-22T03:57:57.854Z,100.00
2023-03-22T04:00:26.380Z,100.00
2023-03-22T04:02:54.462Z,100.00
2023-03-22T04:05:23.377Z,100.00
2023-03-22T04:07:53.586Z,100.00
2023-03-22T04:10:24.403Z,100.00
2023-03-22T04:12:56.417Z,100.00
2023-03-22T04:15:25.163Z,100.00
2023-03-22T04:17:56.063Z,100.00
2023-03-22T04:20:32.459Z,100.00
2023-03-22T04:23:00.715Z,100.00
2023-03-22T04:25:30.658Z,100.00
2023-03-22T04:28:00.887Z,100.00
2023-03-22T04:30:28.755Z,100.00
2023-03-22T04:32:59.334Z,100.00
2023-03-22T04:35:27.475Z,100.00
2023-03-22T04:37:57.939Z,100.00
2023-03-22T04:40:26.877Z,100.00
2023-03-22T04:42:59.303Z,100.00
2023-03-22T04:45:47.388Z,100.00
2023-03-22T04:48:15.548Z,100.00
2023-03-22T04:50:44.572Z,100.00
2023-03-22T04:53:13.277Z,100.00
2023-03-22T04:55:41.484Z,100.00
2023-03-22T04:58:13.456Z,100.00
2023-03-22T05:00:42.702Z,100.00
2023-03-22T05:03:11.692Z,100.00
2023-03-22T05:05:43.589Z,100.00
2023-03-22T05:08:14.699Z,100.00
2023-03-22T05:10:43.697Z,100.00
2023-03-22T05:13:12.260Z,100.00
2023-03-22T05:15:42.141Z,100.00
2023-03-22T05:18:10.644Z,100.00
2023-03-22T05:20:42.698Z,100.00
2023-03-22T05:23:12.319Z,100.00
2023-03-22T05:25:41.147Z,100.00
2023-03-22T05:28:10.930Z,100.00
2023-03-22T05:30:39.508Z,100.00
2023-03-22T05:33:08.442Z,100.00
2023-03-22T05:35:38.401Z,100.00
2023-03-22T05:38:08.546Z,100.00
2023-03-22T05:40:37.226Z,100.00
2023-03-22T05:43:05.744Z,100.00
2023-03-22T05:45:37.057Z,100.00
2023-03-22T05:48:05.867Z,100.00
2023-03-22T05:50:34.940Z,100.00
2023-03-22T05:53:06.727Z,100.00
2023-03-22T05:55:38.470Z,100.00
2023-03-22T05:58:19.613Z,100.00
2023-03-22T06:00:50.319Z,100.00
2023-03-22T06:03:28.543Z,100.00
2023-03-22T06:05:58.799Z,100.00
2023-03-22T06:08:27.661Z,100.00
2023-03-22T06:10:56.037Z,100.00
2023-03-22T06:13:24.678Z,100.00
2023-03-22T06:15:55.414Z,100.00
2023-03-22T06:18:25.111Z,100.00
2023-03-22T06:20:53.346Z,100.00
2023-03-22T06:23:21.604Z,100.00
2023-03-22T06:25:52.199Z,100.00
2023-03-22T06:28:45.932Z,100.00
2023-03-22T06:31:13.936Z,100.00
2023-03-22T06:33:45.963Z,100.00
2023-03-22T06:36:14.144Z,100.00
2023-03-22T06:38:43.990Z,100.00
2023-03-22T06:41:15.318Z,100.00
2023-03-22T06:43:43.557Z,100.00
2023-03-22T06:46:11.935Z,100.00
2023-03-22T06:48:40.974Z,100.00
2023-03-22T06:51:09.430Z,100.00
2023-03-22T06:53:37.911Z,100.00
2023-03-22T06:56:06.562Z,100.00
2023-03-22T06:58:35.030Z,100.00
2023-03-22T07:01:05.367Z,100.00
2023-03-22T07:03:38.808Z,100.00
2023-03-22T07:06:09.108Z,100.00
2023-03-22T07:08:38.402Z,100.00
2023-03-22T07:11:11.302Z,100.00
2023-03-22T07:13:39.486Z,100.00
2023-03-22T07:16:08.629Z,100.00
2023-03-22T07:18:38.616Z,100.00
2023-03-22T07:21:07.236Z,100.00
2023-03-22T07:23:36.022Z,100.00
2023-03-22T07:26:04.813Z,100.00
2023-03-22T07:28:34.032Z,100.00
2023-03-22T07:31:08.186Z,100.00
2023-03-22T07:33:36.552Z,100.00
2023-03-22T07:36:06.795Z,100.00
2023-03-22T07:38:38.229Z,100.00
2023-03-22T07:41:06.934Z,100.00
2023-03-22T07:43:50.799Z,100.00
2023-03-22T07:46:25.178Z,100.00
2023-03-22T07:48:53.629Z,100.00
2023-03-22T07:51:21.912Z,100.00
2023-03-22T07:53:50.007Z,100.00
2023-03-22T07:56:19.980Z,100.00
2023-03-22T07:58:48.459Z,100.00
2023-03-22T08:01:16.771Z,100.00
2023-03-22T08:03:44.603Z,100.00
2023-03-22T08:06:13.663Z,100.00
2023-03-22T08:08:41.833Z,100.00
2023-03-22T08:11:10.137Z,100.00
2023-03-22T08:13:38.222Z,100.00
2023-03-22T08:16:07.462Z,100.00
2023-03-22T08:18:37.074Z,100.00
2023-03-22T08:21:05.664Z,100.00
2023-03-22T08:23:42.012Z,100.00
2023-03-22T08:26:11.663Z,100.00
2023-03-22T08:28:40.038Z,100.00
2023-03-22T08:31:16.236Z,100.00
2023-03-22T08:33:45.383Z,100.00
2023-03-22T08:36:20.347Z,100.00
2023-03-22T08:38:50.847Z,100.00
2023-03-22T08:41:20.528Z,100.00
2023-03-22T08:43:49.349Z,100.00
2023-03-22T08:46:18.020Z,100.00
2023-03-22T08:48:51.322Z,100.00
2023-03-22T08:51:23.578Z,100.00
2023-03-22T08:53:52.249Z,100.00
2023-03-22T08:56:20.542Z,100.00
2023-03-22T08:58:49.676Z,100.00
2023-03-22T09:01:18.441Z,100.00
2023-03-22T09:03:46.368Z,100.00
2023-03-22T09:06:15.060Z,100.00
2023-03-22T09:08:46.619Z,100.00
2023-03-22T09:11:17.632Z,100.00
2023-03-22T09:13:51.925Z,100.00
2023-03-22T09:16:21.443Z,100.00
2023-03-22T09:18:54.202Z,100.00
2023-03-22T09:21:23.988Z,100.00
2023-03-22T09:23:52.261Z,100.00
2023-03-22T09:26:23.169Z,100.00
2023-03-22T09:28:52.048Z,100.00
2023-03-22T09:31:20.886Z,100.00
2023-03-22T09:33:52.234Z,100.00
2023-03-22T09:36:21.036Z,100.00
2023-03-22T09:38:50.298Z,100.00
2023-03-22T09:41:25.293Z,100.00
2023-03-22T09:43:58.803Z,100.00
2023-03-22T09:46:37.226Z,100.00
2023-03-22T09:49:12.682Z,100.00
2023-03-22T09:51:51.795Z,98.65
2023-03-22T09:54:36.064Z,96.85
2023-03-22T09:57:30.176Z,97.24
2023-03-22T10:00:14.990Z,95.23
2023-03-22T10:02:46.614Z,93.01
2023-03-22T10:05:32.774Z,92.63
2023-03-22T10:08:18.942Z,91.75
2023-03-22T10:10:47.721Z,92.90
2023-03-22T10:13:45.847Z,93.20
2023-03-22T10:16:26.788Z,94.46
2023-03-22T10:19:02.622Z,95.38
2023-03-22T10:21:38.186Z,96.03
2023-03-22T10:24:33.825Z,95.17
2023-03-22T10:27:02.552Z,95.11
2023-03-22T10:29:40.055Z,95.93
2023-03-22T10:32:19.078Z,95.96
2023-03-22T10:34:47.839Z,97.84
2023-03-22T10:37:20.109Z,100.00
2023-03-22T10:39:55.224Z,100.00
2023-03-22T10:42:26.791Z,100.00
2023-03-22T10:45:07.659Z,100.00
2023-03-22T10:47:58.459Z,100.00
2023-03-22T10:50:31.444Z,100.00
2023-03-22T10:53:07.405Z,100.00
2023-03-22T10:55:42.455Z,100.00
2023-03-22T10:58:22.120Z,100.00
2023-03-22T11:00:57.584Z,100.00
2023-03-22T11:03:51.229Z,100.00
2023-03-22T11:06:33.131Z,95.69
2023-03-22T11:09:13.327Z,94.82
2023-03-22T11:11:55.060Z,95.61
2023-03-22T11:14:36.248Z,94.60
2023-03-22T11:17:09.053Z,92.58
2023-03-22T11:19:50.835Z,90.43
2023-03-22T11:22:31.856Z,87.75
2023-03-22T11:25:00.211Z,88.39
2023-03-22T11:27:33.712Z,87.09
2023-03-22T11:30:22.336Z,87.98
2023-03-22T11:33:20.445Z,90.08
2023-03-22T11:35:59.342Z,91.29
2023-03-22T11:38:42.247Z,93.12
2023-03-22T11:41:23.628Z,92.91
2023-03-22T11:43:55.027Z,92.68
2023-03-22T11:46:26.212Z,91.79
2023-03-22T11:49:00.993Z,91.80
2023-03-22T11:51:41.724Z,91.16
2023-03-22T11:54:34.805Z,92.93
2023-03-22T11:57:06.157Z,92.12
2023-03-22T12:00:11.979Z,92.02
2023-03-22T12:02:49.272Z,93.70
2023-03-22T12:05:27.651Z,93.64
2023-03-22T12:08:01.475Z,94.74
2023-03-22T12:10:43.493Z,96.38
2023-03-22T12:13:47.640Z,97.77
2023-03-22T12:16:25.924Z,98.29
2023-03-22T12:19:43.532Z,98.38
2023-03-22T12:22:14.480Z,98.50
2023-03-22T12:24:43.078Z,97.44
2023-03-22T12:27:45.235Z,96.12
2023-03-22T12:30:25.751Z,93.74
2023-03-22T12:33:21.053Z,93.00
2023-03-22T12:35:56.640Z,93.14
2023-03-22T12:38:46.719Z,92.58
2023-03-22T12:41:19.851Z,91.77
2023-03-22T12:44:11.669Z,91.40
2023-03-22T12:46:54.711Z,91.53
2023-03-22T12:49:29.330Z,90.09
2023-03-22T12:52:12.252Z,88.18
2023-03-22T12:54:41.188Z,88.39
2023-03-22T12:57:09.695Z,87.83
2023-03-22T12:59:41.899Z,87.70
2023-03-22T13:02:15.120Z,88.08
2023-03-22T13:04:46.074Z,87.39
2023-03-22T13:07:17.270Z,87.80
2023-03-22T13:09:49.539Z,87.14
2023-03-22T13:12:25.030Z,86.74
2023-03-22T13:14:58.807Z,85.96
2023-03-22T13:17:27.833Z,85.87
2023-03-22T13:20:15.165Z,86.78
2023-03-22T13:22:46.566Z,86.52
2023-03-22T13:25:21.484Z,85.06
2023-03-22T13:28:03.348Z,85.33
2023-03-22T13:30:35.145Z,84.82
2023-03-22T13:33:09.183Z,73.04
2023-03-22T13:35:54.566Z,71.52
2023-03-22T13:38:27.009Z,71.01
2023-03-22T13:41:28.188Z,69.88
2023-03-22T13:44:01.277Z,69.84
2023-03-22T13:46:44.701Z,70.02
2023-03-22T13:49:41.925Z,70.88
2023-03-22T13:52:20.078Z,71.50
2023-03-22T13:54:50.564Z,72.29
2023-03-22T13:57:59.230Z,71.51
2023-03-22T14:00:50.844Z,70.17
2023-03-22T14:03:31.108Z,69.59
2023-03-22T14:06:16.137Z,69.31
2023-03-22T14:08:48.151Z,70.94
2023-03-22T14:11:57.186Z,71.64
2023-03-22T14:14:47.469Z,71.89
2023-03-22T14:17:31.063Z,73.43
2023-03-22T14:20:01.477Z,74.40
